Time;durP1;ratioP1;P1;durP2;ratioP2;P2;SDS_P1;SDS_P2;PMS_P1;PMS_P2;Temp;Humidity;BMP_temperature;BMP_pressure;BME280_temperature;BME280_humidity;BME280_pressure;Samples;Min_cycle;Max_cycle;Signal;HPM_P1;HPM_P2
2022/07/30 00:00:53;;;;;;;3.40;2.30;;;;;;;17.43;70.17;99072.39;104665;1273;76975;-23
2022/07/30 00:03:20;;;;;;;6.80;2.30;;;;;;;17.14;71.01;99066.56;104773;1273;74177;-25
2022/07/30 00:05:48;;;;;;;2.00;1.50;;;;;;;16.94;71.83;99061.34;104744;1272;63589;-26
2022/07/30 00:08:15;;;;;;;6.90;1.80;;;;;;;17.26;71.33;99056.85;104978;1271;61050;-24
2022/07/30 00:10:43;;;;;;;3.60;2.30;;;;;;;17.66;70.09;99061.27;105075;1274;76490;-23
2022/07/30 00:13:11;;;;;;;5.30;2.50;;;;;;;17.68;70.04;99062.45;105103;1272;77472;-23
2022/07/30 00:15:40;;;;;;;5.40;2.00;;;;;;;17.49;69.71;99059.59;105123;1271;75402;-24
2022/07/30 00:18:07;;;;;;;5.60;2.40;;;;;;;17.19;70.07;99058.06;105068;1271;62054;-23
2022/07/30 00:20:39;;;;;;;3.00;2.20;;;;;;;16.90;71.21;99060.15;104999;1271;61622;-26
2022/07/30 00:23:10;;;;;;;3.70;2.30;;;;;;;16.61;71.87;99062.33;105062;1271;77196;-25
2022/07/30 00:25:37;;;;;;;2.40;1.70;;;;;;;16.39;73.44;99062.57;104847;1271;77118;-25
2022/07/30 00:28:05;;;;;;;4.20;1.70;;;;;;;16.75;73.29;99062.06;104973;1271;74435;-26
2022/07/30 00:30:32;;;;;;;5.60;2.30;;;;;;;17.20;72.34;99062.20;105098;1271;63095;-25
2022/07/30 00:32:59;;;;;;;3.60;2.40;;;;;;;17.18;72.28;99065.92;104826;1274;62127;-25
2022/07/30 00:35:27;;;;;;;2.90;2.20;;;;;;;16.96;71.81;99069.16;105008;1271;76547;-25
2022/07/30 00:37:54;;;;;;;3.80;2.30;;;;;;;16.73;72.60;99067.73;104994;1271;77080;-25
2022/07/30 00:40:22;;;;;;;4.00;2.50;;;;;;;16.52;73.49;99066.14;104759;1274;75300;-25
2022/07/30 00:42:51;;;;;;;3.90;2.80;;;;;;;16.21;73.49;99070.20;104961;1271;61038;-25
2022/07/30 00:45:18;;;;;;;5.30;1.60;;;;;;;15.93;74.88;99069.23;104953;1271;62890;-25
2022/07/30 00:47:46;;;;;;;3.60;1.60;;;;;;;16.24;75.44;99067.73;104791;1271;76730;-25
2022/07/30 00:50:13;;;;;;;4.20;2.10;;;;;;;16.58;73.82;99062.83;104901;1271;75896;-25
2022/07/30 00:52:41;;;;;;;5.50;3.00;;;;;;;16.56;73.24;99060.42;104993;1271;74349;-25
2022/07/30 00:55:11;;;;;;;3.40;2.30;;;;;;;16.38;73.74;99060.17;105082;1271;61835;-25
2022/07/30 00:57:38;;;;;;;5.50;2.20;;;;;;;16.11;74.52;99055.66;104862;1271;61126;-25
2022/07/30 01:00:08;;;;;;;3.50;2.50;;;;;;;15.83;75.30;99056.10;105134;1271;76463;-25
2022/07/30 01:02:35;;;;;;;3.00;1.60;;;;;;;15.51;76.54;99054.77;105173;1271;76078;-25
2022/07/30 01:05:04;;;;;;;3.10;1.60;;;;;;;15.73;76.14;99055.85;104678;1274;75358;-25
2022/07/30 01:07:32;;;;;;;2.20;1.90;;;;;;;16.08;75.04;99051.73;104752;1271;63132;-25
2022/07/30 01:09:59;;;;;;;2.30;2.10;;;;;;;16.10;74.69;99056.84;104830;1271;62189;-25
2022/07/30 01:12:26;;;;;;;4.30;2.20;;;;;;;15.94;75.47;99055.09;104703;1271;75561;-25
2022/07/30 01:14:55;;;;;;;7.10;2.30;;;;;;;15.74;75.81;99051.63;104784;1271;76948;-25
2022/07/30 01:17:23;;;;;;;2.20;1.90;;;;;;;15.49;76.50;99050.77;104621;1271;75363;-25
2022/07/30 01:19:54;;;;;;;2.60;1.80;;;;;;;15.24;77.04;99043.27;104789;1271;64811;-25
2022/07/30 01:22:28;;;;;;;2.50;1.80;;;;;;;15.58;76.90;99050.08;104637;1274;63059;-25
2022/07/30 01:25:03;;;;;;;2.90;1.70;;;;;;;16.06;74.56;99053.05;104788;1271;76487;-24
2022/07/30 01:27:34;;;;;;;3.00;2.00;;;;;;;16.07;73.62;99054.48;104957;1271;76828;-25
2022/07/30 01:30:03;;;;;;;2.50;2.30;;;;;;;15.89;73.83;99052.14;104653;1271;75475;-25
2022/07/30 01:32:32;;;;;;;6.40;2.70;;;;;;;15.65;74.47;99051.59;104623;1271;62087;-25
2022/07/30 01:35:00;;;;;;;3.40;2.40;;;;;;;15.43;75.40;99051.33;105150;1271;61694;-23
2022/07/30 01:37:28;;;;;;;3.40;1.70;;;;;;;15.27;76.26;99049.47;104640;1271;76688;-23
2022/07/30 01:39:55;;;;;;;2.30;1.90;;;;;;;15.71;76.19;99051.84;104679;1271;77032;-24
2022/07/30 01:42:23;;;;;;;6.00;2.40;;;;;;;16.24;74.93;99045.95;104841;1271;74130;-24
2022/07/30 01:44:51;;;;;;;5.40;2.30;;;;;;;16.31;73.98;99046.58;105115;1271;62048;-24
2022/07/30 01:47:18;;;;;;;4.20;2.00;;;;;;;16.08;73.06;99049.30;105083;1271;62698;-24
2022/07/30 01:49:46;;;;;;;2.70;2.30;;;;;;;15.77;74.36;99054.71;104833;1271;75283;-24
2022/07/30 01:52:13;;;;;;;3.90;2.70;;;;;;;15.53;75.54;99050.89;104756;1274;76350;-23
2022/07/30 01:54:42;;;;;;;2.10;1.70;;;;;;;15.33;76.04;99054.30;104719;1271;75037;-24
2022/07/30 01:57:10;;;;;;;2.40;1.90;;;;;;;15.70;75.91;99053.87;104847;1271;61748;-24
2022/07/30 01:59:38;;;;;;;2.40;1.80;;;;;;;16.12;73.49;99047.45;104865;1274;61797;-24
2022/07/30 02:02:06;;;;;;;3.70;2.20;;;;;;;16.04;72.68;99048.81;104827;1271;76256;-24
2022/07/30 02:04:33;;;;;;;4.10;3.30;;;;;;;15.81;73.76;99054.32;104787;1271;76999;-24
2022/07/30 02:07:24;;;;;;;4.60;2.70;;;;;;;15.57;74.25;99055.02;104757;1271;74169;-24
2022/07/30 02:10:17;;;;;;;2.60;2.00;;;;;;;15.22;75.17;99058.00;104599;1271;63107;-24
2022/07/30 02:12:49;;;;;;;5.00;1.60;;;;;;;14.89;75.54;99052.36;104625;1272;61824;-24
2022/07/30 02:15:26;;;;;;;3.80;1.90;;;;;;;15.24;75.85;99051.39;104736;1271;76550;-24
2022/07/30 02:18:15;;;;;;;7.20;1.80;;;;;;;15.64;75.05;99057.46;104700;1271;75629;-24
2022/07/30 02:20:45;;;;;;;2.30;2.00;;;;;;;15.37;75.28;99057.70;104861;1274;74724;-24
2022/07/30 02:23:15;;;;;;;4.10;2.30;;;;;;;15.17;75.97;99056.60;104531;1271;61270;-24
2022/07/30 02:25:45;;;;;;;4.30;2.60;;;;;;;15.00;76.57;99053.10;104837;1272;62034;-24
2022/07/30 02:28:13;;;;;;;2.30;1.80;;;;;;;14.83;77.15;99054.73;104468;1274;74939;-24
2022/07/30 02:30:46;;;;;;;3.90;2.30;;;;;;;15.20;77.27;99052.97;104623;1274;76972;-24
2022/07/30 02:33:13;;;;;;;3.70;2.60;;;;;;;15.71;76.20;99053.95;104575;1274;74550;-23
2022/07/30 02:35:41;;;;;;;2.90;2.20;;;;;;;15.78;75.71;99057.44;105141;1271;63225;-23
2022/07/30 02:38:09;;;;;;;3.10;2.40;;;;;;;15.64;75.30;99055.52;105075;1271;61216;-23
2022/07/30 02:40:41;;;;;;;4.90;3.30;;;;;;;15.43;75.45;99056.25;105101;1271;76620;-24
2022/07/30 02:43:20;;;;;;;5.30;2.20;;;;;;;15.14;75.65;99059.55;104728;1271;77177;-24
2022/07/30 02:45:47;;;;;;;2.60;1.50;;;;;;;14.88;74.74;99064.92;105119;1271;75192;-23
2022/07/30 02:48:18;;;;;;;2.90;1.70;;;;;;;15.20;75.26;99072.70;105055;1271;63186;-24
2022/07/30 02:51:02;;;;;;;4.40;2.30;;;;;;;15.65;73.95;99074.88;104784;1274;61973;-24
2022/07/30 02:53:29;;;;;;;9.60;2.70;;;;;;;15.37;76.47;99071.00;104703;1271;76719;-24
2022/07/30 02:55:56;;;;;;;3.60;2.70;;;;;;;15.24;76.75;99070.95;104796;1271;76015;-24
2022/07/30 02:58:24;;;;;;;5.20;2.70;;;;;;;15.06;78.07;99068.35;104730;1271;75280;-23
2022/07/30 03:00:53;;;;;;;4.40;3.00;;;;;;;15.06;76.78;99068.94;104688;1271;61724;-23
2022/07/30 03:03:21;;;;;;;3.60;1.90;;;;;;;15.07;75.57;99070.58;104813;1271;62790;-24
2022/07/30 03:05:49;;;;;;;7.30;2.00;;;;;;;15.61;75.31;99069.53;105120;1271;75422;-24
2022/07/30 03:08:16;;;;;;;7.50;4.10;;;;;;;16.35;73.42;99065.43;104786;1273;75597;-24
2022/07/30 03:10:47;;;;;;;5.90;3.90;;;;;;;16.63;72.35;99065.77;104964;1273;75976;-23
2022/07/30 03:13:14;;;;;;;16.90;6.20;;;;;;;16.72;72.19;99070.45;104906;1273;62793;-24
2022/07/30 03:15:43;;;;;;;69.50;19.80;;;;;;;16.74;71.91;99070.82;104752;1271;62046;-24
2022/07/30 03:18:12;;;;;;;70.90;17.30;;;;;;;16.72;72.30;99066.48;104675;1273;75411;-24
2022/07/30 03:20:39;;;;;;;28.80;8.40;;;;;;;16.73;72.41;99070.42;104835;1273;77044;-24
2022/07/30 03:23:06;;;;;;;8.70;3.60;;;;;;;17.24;71.86;99071.39;104927;1273;73103;-24
2022/07/30 03:25:34;;;;;;;7.10;3.80;;;;;;;17.79;69.62;99064.91;104732;1273;61161;-24
2022/07/30 03:28:02;;;;;;;20.50;8.30;;;;;;;17.77;69.26;99064.75;105056;1273;61103;-24
2022/07/30 03:30:30;;;;;;;89.40;27.40;;;;;;;17.69;70.43;99069.29;105068;1273;75636;-24
2022/07/30 03:33:05;;;;;;;75.00;25.30;;;;;;;17.47;70.83;99072.44;104772;1273;77539;-24
2022/07/30 03:35:32;;;;;;;46.30;16.00;;;;;;;17.23;71.46;99071.02;105058;1273;74344;-24
2022/07/30 03:37:59;;;;;;;35.90;11.90;;;;;;;17.01;72.22;99069.00;104770;1271;61864;-24
2022/07/30 03:40:27;;;;;;;32.10;10.60;;;;;;;16.84;73.24;99069.41;104724;1273;61046;-24
2022/07/30 03:42:55;;;;;;;18.10;8.00;;;;;;;17.28;73.37;99069.35;104654;1273;76763;-24
2022/07/30 03:45:23;;;;;;;26.40;16.00;;;;;;;17.84;71.66;99067.45;104649;1273;76803;-24
2022/07/30 03:47:53;;;;;;;29.70;18.00;;;;;;;17.93;70.80;99068.89;104920;1273;75345;-24
2022/07/30 03:50:22;;;;;;;24.60;13.90;;;;;;;17.79;70.85;99071.88;104992;1273;61138;-24
2022/07/30 03:52:50;;;;;;;24.30;14.10;;;;;;;17.57;71.75;99069.21;105066;1273;61869;-26
2022/07/30 03:55:17;;;;;;;17.70;11.10;;;;;;;17.40;72.28;99066.04;105091;1273;75359;-26
2022/07/30 03:57:44;;;;;;;13.10;9.00;;;;;;;17.23;72.92;99067.99;104811;1272;74882;-25
2022/07/30 04:00:13;;;;;;;9.10;4.70;;;;;;;17.14;73.78;99073.96;104575;1273;75514;-25
2022/07/30 04:02:44;;;;;;;6.70;4.20;;;;;;;17.73;73.25;99069.80;104926;1273;63061;-24
2022/07/30 04:05:29;;;;;;;5.90;3.80;;;;;;;18.45;71.41;99068.41;104673;1273;62810;-24
2022/07/30 04:08:07;;;;;;;5.70;3.70;;;;;;;18.70;70.25;99067.00;104646;1273;76340;-24
2022/07/30 04:10:37;;;;;;;9.40;4.20;;;;;;;18.90;69.70;99064.19;104670;1274;76963;-24
2022/07/30 04:13:30;;;;;;;5.90;3.80;;;;;;;19.05;69.15;99067.04;104610;1273;74475;-24
2022/07/30 04:16:04;;;;;;;12.30;9.10;;;;;;;19.10;69.28;99072.05;104734;1272;61709;-24
2022/07/30 04:18:52;;;;;;;;;;;;;;;19.07;69.32;99071.41;104692;1272;62060;-24
2022/07/30 04:21:20;;;;;;;14.90;11.00;;;;;;;18.96;69.46;99072.44;104650;1273;75336;-24
2022/07/30 04:23:48;;;;;;;14.50;6.20;;;;;;;18.97;69.77;99070.28;104714;1273;77368;-24
2022/07/30 04:26:32;;;;;;;7.20;4.50;;;;;;;19.67;68.79;99068.72;104759;1272;74171;-25
2022/07/30 04:29:00;;;;;;;4.70;3.70;;;;;;;20.33;66.75;99062.93;104620;1274;61752;-24
2022/07/30 04:31:28;;;;;;;7.50;4.00;;;;;;;20.46;65.76;99054.85;104629;1273;62371;-24
2022/07/30 04:34:03;;;;;;;10.90;4.90;;;;;;;20.44;65.78;99060.92;104791;1273;76590;-24
2022/07/30 04:36:37;;;;;;;8.60;4.20;;;;;;;20.44;65.67;99054.79;104750;1273;76794;-24
2022/07/30 04:39:05;;;;;;;5.00;4.00;;;;;;;20.49;65.35;99055.10;104654;1273;75377;-25
2022/07/30 04:41:32;;;;;;;6.40;5.00;;;;;;;20.57;65.28;99049.67;104732;1273;61754;-24
2022/07/30 04:44:24;;;;;;;6.30;4.30;;;;;;;20.60;65.22;99048.70;104742;1273;63329;-24
2022/07/30 04:47:18;;;;;;;7.50;4.80;;;;;;;20.70;65.08;99056.88;104675;1273;75483;-24
2022/07/30 04:50:22;;;;;;;7.70;4.30;;;;;;;20.90;64.52;99055.88;104487;1273;77323;-24
2022/07/30 04:52:51;;;;;;;6.40;4.10;;;;;;;21.11;63.81;99051.06;104567;1273;73764;-24
2022/07/30 04:55:24;;;;;;;5.10;2.60;;;;;;;21.39;63.86;99055.05;104555;1272;63742;-24
2022/07/30 04:57:51;;;;;;;2.90;2.30;;;;;;;22.17;62.40;99050.02;104617;1273;62036;-25
2022/07/30 05:00:19;;;;;;;4.70;2.50;;;;;;;23.03;60.13;99047.17;104704;1273;76288;-24
2022/07/30 05:02:46;;;;;;;10.20;2.50;;;;;;;23.41;58.73;99048.22;104607;1273;75790;-24
2022/07/30 05:05:14;;;;;;;4.80;2.60;;;;;;;23.62;57.62;99046.96;104545;1273;74224;-24
2022/07/30 05:07:42;;;;;;;7.10;2.90;;;;;;;23.73;56.60;99048.33;104711;1273;62850;-24
2022/07/30 05:10:11;;;;;;;3.40;2.60;;;;;;;23.71;55.66;99048.56;104760;1274;61071;-24
2022/07/30 05:12:39;;;;;;;5.20;2.60;;;;;;;23.68;55.71;99052.66;104646;1274;76640;-24
2022/07/30 05:15:08;;;;;;;6.20;2.80;;;;;;;23.65;54.23;99050.30;104649;1274;77039;-24
2022/07/30 05:17:36;;;;;;;5.20;2.80;;;;;;;23.66;54.62;99051.85;104689;1274;75316;-24
2022/07/30 05:20:08;;;;;;;5.60;2.90;;;;;;;23.67;55.20;99055.20;104784;1271;62677;-24
2022/07/30 05:22:54;;;;;;;4.10;2.80;;;;;;;23.70;55.00;99055.15;104624;1271;61324;-24
2022/07/30 05:25:22;;;;;;;4.80;2.90;;;;;;;23.70;55.37;99059.85;104724;1271;76545;-24
2022/07/30 05:27:51;;;;;;;8.60;3.20;;;;;;;23.69;55.22;99062.88;104789;1271;76751;-24
2022/07/30 05:30:18;;;;;;;5.40;2.60;;;;;;;23.62;54.95;99062.25;104756;1271;75241;-24
2022/07/30 05:32:55;;;;;;;6.20;2.50;;;;;;;23.48;55.21;99061.37;104912;1271;61207;-24
2022/07/30 05:35:23;;;;;;;3.70;2.40;;;;;;;23.35;55.56;99062.02;104739;1274;63062;-24
2022/07/30 05:37:52;;;;;;;4.30;2.40;;;;;;;23.25;55.75;99060.69;104884;1271;75637;-24
2022/07/30 05:40:21;;;;;;;2.50;2.00;;;;;;;23.19;55.73;99063.38;104668;1271;77097;-24
2022/07/30 05:43:14;;;;;;;4.10;2.20;;;;;;;23.12;55.99;99054.08;104731;1271;75267;-24
2022/07/30 05:45:41;;;;;;;3.20;2.00;;;;;;;23.06;55.98;99055.21;104828;1271;63332;-25
2022/07/30 05:48:09;;;;;;;7.50;2.10;;;;;;;23.04;55.95;99054.27;104741;1271;61137;-24
2022/07/30 05:50:36;;;;;;;4.20;2.40;;;;;;;22.95;55.83;99056.83;104943;1271;76644;-24
2022/07/30 05:53:04;;;;;;;6.00;1.90;;;;;;;22.89;56.11;99053.61;104783;1274;76704;-24
2022/07/30 05:56:01;;;;;;;6.00;2.00;;;;;;;22.81;56.05;99053.77;104245;1272;75585;-24
2022/07/30 05:58:49;;;;;;;2.80;2.10;;;;;;;22.74;57.26;99057.36;104814;1272;62032;-24
2022/07/30 06:01:23;;;;;;;;;;;;;;;22.76;56.94;99055.90;104657;1271;62021;-24
2022/07/30 06:03:51;;;;;;;3.50;2.00;;;;;;;22.78;57.10;99053.86;104831;1271;75230;-24
2022/07/30 06:06:38;;;;;;;4.20;1.60;;;;;;;22.87;57.09;99057.65;105108;1271;75896;-24
2022/07/30 06:09:06;;;;;;;5.50;1.90;;;;;;;22.99;56.57;99058.45;104621;1275;74277;-24
2022/07/30 06:11:35;;;;;;;7.50;1.90;;;;;;;23.10;56.55;99054.52;104962;1271;63196;-24
2022/07/30 06:14:02;;;;;;;3.70;1.90;;;;;;;23.20;56.10;99058.42;104751;1274;61946;-24
2022/07/30 06:16:30;;;;;;;3.10;1.80;;;;;;;23.24;56.13;99058.13;104979;1271;76445;-24
2022/07/30 06:18:57;;;;;;;2.90;1.70;;;;;;;23.29;55.91;99059.21;104872;1271;77115;-24
2022/07/30 06:21:45;;;;;;;4.40;1.80;;;;;;;23.30;55.06;99058.23;104785;1271;75313;-24
2022/07/30 06:24:34;;;;;;;4.60;1.70;;;;;;;23.30;55.45;99057.82;104945;1271;61237;-24
2022/07/30 06:27:14;;;;;;;5.40;1.90;;;;;;;23.36;54.91;99056.91;104853;1271;62941;-24
2022/07/30 06:29:41;;;;;;;8.60;1.90;;;;;;;23.45;54.65;99051.11;104817;1271;76594;-24
2022/07/30 06:32:09;;;;;;;2.00;1.60;;;;;;;23.60;53.89;99049.02;104838;1271;76772;-24
2022/07/30 06:34:36;;;;;;;6.50;1.90;;;;;;;23.83;53.80;99051.21;104831;1271;75369;-24
2022/07/30 06:37:04;;;;;;;2.40;1.40;;;;;;;24.12;52.32;99049.82;104702;1271;63151;-24
2022/07/30 06:39:32;;;;;;;4.60;1.70;;;;;;;24.38;51.12;99046.13;104754;1274;60942;-24
2022/07/30 06:42:19;;;;;;;3.40;1.50;;;;;;;24.78;51.03;99042.77;104756;1273;75506;-24
2022/07/30 06:45:06;;;;;;;4.70;1.60;;;;;;;25.12;49.63;99036.83;104761;1271;76035;-24
2022/07/30 06:47:58;;;;;;;7.40;1.50;;;;;;;25.40;49.29;99035.92;104320;1274;74805;-24
2022/07/30 06:50:26;;;;;;;5.70;1.90;;;;;;;25.66;47.71;99036.12;104647;1271;61839;-24
2022/07/30 06:52:54;;;;;;;4.00;1.40;;;;;;;25.79;47.63;99036.66;104821;1271;61728;-24
2022/07/30 06:55:22;;;;;;;3.00;1.50;;;;;;;25.74;47.52;99034.95;104850;1271;76408;-24
2022/07/30 06:57:52;;;;;;;6.70;1.20;;;;;;;25.56;47.54;99032.73;105044;1271;77142;-24
2022/07/30 07:00:38;;;;;;;2.80;1.60;;;;;;;25.55;47.63;99025.66;104895;1271;75273;-24
2022/07/30 07:03:09;;;;;;;3.70;1.50;;;;;;;25.50;47.32;99020.98;105053;1271;63243;-24
2022/07/30 07:05:38;;;;;;;2.60;1.70;;;;;;;25.49;48.05;99019.52;104875;1271;61741;-24
2022/07/30 07:08:05;;;;;;;2.10;1.30;;;;;;;25.69;47.42;99020.70;105086;1271;75559;-24
2022/07/30 07:10:36;;;;;;;3.20;1.30;;;;;;;25.91;47.65;99019.42;104898;1271;77111;-24
2022/07/30 07:13:27;;;;;;;9.80;1.80;;;;;;;26.13;46.05;99010.86;104671;1271;75342;-24
2022/07/30 07:15:56;;;;;;;3.90;1.50;;;;;;;26.28;44.91;99015.14;104816;1271;61121;-24
2022/07/30 07:18:25;;;;;;;3.30;1.60;;;;;;;26.46;44.16;99017.60;104715;1271;61735;-24
2022/07/30 07:20:57;;;;;;;4.10;1.60;;;;;;;26.40;43.67;99019.64;104798;1274;77039;-24
2022/07/30 07:23:25;;;;;;;4.00;1.70;;;;;;;26.15;44.81;99024.70;104824;1274;75960;-24
2022/07/30 07:26:24;;;;;;;2.80;1.90;;;;;;;26.44;45.27;99027.86;104596;1271;74142;-24
2022/07/30 07:28:51;;;;;;;3.50;1.60;;;;;;;26.61;43.67;99022.13;105093;1274;61019;-24
2022/07/30 07:31:18;;;;;;;2.90;1.50;;;;;;;26.60;43.63;99022.73;104916;1271;62929;-24
2022/07/30 07:34:06;;;;;;;3.60;1.90;;;;;;;26.27;42.50;99023.80;104771;1271;75242;-24
2022/07/30 07:36:35;;;;;;;4.50;1.40;;;;;;;26.18;44.23;99021.23;104856;1274;77075;-24
2022/07/30 07:39:08;;;;;;;3.80;1.60;;;;;;;26.37;43.88;99019.30;104980;1272;74095;-24
2022/07/30 07:41:40;;;;;;;4.70;1.60;;;;;;;26.50;43.62;99017.11;104809;1271;63073;-24
2022/07/30 07:44:19;;;;;;;5.80;1.60;;;;;;;26.80;42.79;99014.26;104852;1271;63058;-24
2022/07/30 07:46:47;;;;;;;3.60;1.50;;;;;;;27.14;43.12;99014.71;104758;1271;76426;-24
2022/07/30 07:49:15;;;;;;;3.80;1.40;;;;;;;27.50;41.35;99015.23;104905;1271;77390;-24
2022/07/30 07:51:48;;;;;;;3.80;1.30;;;;;;;27.83;40.49;99016.14;104684;1274;75311;-24
2022/07/30 07:54:17;;;;;;;4.60;1.80;;;;;;;27.81;40.81;99012.52;104740;1271;61156;-24
2022/07/30 07:56:50;;;;;;;4.30;1.70;;;;;;;27.95;39.11;99012.70;104717;1274;63333;-25
2022/07/30 07:59:19;;;;;;;3.50;1.50;;;;;;;28.02;39.85;99009.89;104789;1272;76689;-24
2022/07/30 08:01:47;;;;;;;6.70;1.60;;;;;;;28.41;37.28;99007.27;104725;1271;75947;-24
2022/07/30 08:04:16;;;;;;;1.80;1.20;;;;;;;28.63;37.32;99006.39;104886;1272;75468;-24
2022/07/30 08:07:09;;;;;;;3.30;1.20;;;;;;;28.54;37.45;99004.80;104755;1271;61797;-24
2022/07/30 08:09:39;;;;;;;2.50;1.10;;;;;;;28.37;37.25;99005.13;104735;1273;61944;-24
2022/07/30 08:12:39;;;;;;;1.90;1.40;;;;;;;27.97;37.55;99003.05;104379;1275;74481;-23
2022/07/30 08:15:16;;;;;;;2.90;1.50;;;;;;;27.58;38.85;99004.82;104691;1273;76803;-24
2022/07/30 08:18:07;;;;;;;2.60;1.10;;;;;;;27.61;39.04;99005.63;104699;1273;74576;-24
2022/07/30 08:20:41;;;;;;;4.60;1.80;;;;;;;27.77;38.35;98999.61;104894;1273;61174;-24
2022/07/30 08:23:10;;;;;;;3.10;1.30;;;;;;;27.47;38.36;99002.43;104972;1273;61966;-24
2022/07/30 08:25:37;;;;;;;2.10;1.00;;;;;;;27.63;39.63;99001.42;104671;1274;76190;-24
2022/07/30 08:28:05;;;;;;;3.50;1.50;;;;;;;27.63;38.82;99000.69;104811;1273;77438;-24
2022/07/30 08:30:32;;;;;;;1.50;1.00;;;;;;;27.87;38.53;99000.66;104657;1274;74321;-24
2022/07/30 08:33:05;;;;;;;2.10;1.40;;;;;;;28.35;38.22;98999.25;104581;1273;61822;-26
2022/07/30 08:35:32;;;;;;;3.40;1.40;;;;;;;28.68;37.51;98991.92;104626;1273;61143;-24
2022/07/30 08:38:00;;;;;;;2.00;1.20;;;;;;;28.93;37.96;98988.02;104737;1273;76377;-24
2022/07/30 08:40:28;;;;;;;2.10;1.20;;;;;;;29.44;37.71;98991.38;104653;1273;75975;-24
2022/07/30 08:43:02;;;;;;;2.20;1.50;;;;;;;29.89;35.25;98988.10;104998;1273;75361;-24
2022/07/30 08:45:30;;;;;;;2.10;1.20;;;;;;;30.17;34.48;98984.27;104908;1273;63164;-24
2022/07/30 08:48:21;;;;;;;2.60;1.30;;;;;;;30.32;33.89;98980.25;104641;1274;62063;-24
2022/07/30 08:50:49;;;;;;;4.10;1.30;;;;;;;30.51;34.87;98979.48;104847;1273;74473;-24
2022/07/30 08:53:37;;;;;;;2.40;1.40;;;;;;;30.86;33.30;98972.51;104384;1275;76988;-24
2022/07/30 08:56:06;;;;;;;1.80;1.30;;;;;;;30.76;32.80;98972.55;104656;1274;74594;-24
2022/07/30 08:58:35;;;;;;;5.50;1.40;;;;;;;30.82;33.01;98970.45;104789;1273;62512;-24
2022/07/30 09:01:05;;;;;;;3.40;1.10;;;;;;;30.58;30.57;98968.02;104691;1273;61153;-24
2022/07/30 09:03:33;;;;;;;3.00;1.00;;;;;;;30.18;31.42;98968.82;104674;1273;76546;-24
2022/07/30 09:06:01;;;;;;;6.30;1.80;;;;;;;30.39;31.64;98970.91;104689;1274;76058;-24
2022/07/30 09:08:31;;;;;;;1.40;1.20;;;;;;;30.46;31.47;98967.36;104638;1273;74473;-24
2022/07/30 09:10:58;;;;;;;4.60;1.30;;;;;;;30.55;30.50;98962.67;104768;1274;61952;-24
2022/07/30 09:13:26;;;;;;;2.60;1.20;;;;;;;30.44;29.87;98964.92;104707;1273;62971;-24
2022/07/30 09:15:56;;;;;;;1.50;1.00;;;;;;;30.42;30.82;98964.86;104698;1273;76659;-24
2022/07/30 09:18:36;;;;;;;5.70;1.50;;;;;;;30.37;29.58;98962.73;104720;1273;76862;-25
2022/07/30 09:21:27;;;;;;;4.20;1.10;;;;;;;30.09;28.64;98959.78;104608;1274;75432;-24
2022/07/30 09:24:14;;;;;;;3.40;1.40;;;;;;;29.77;29.41;98962.42;104733;1272;62074;-24
2022/07/30 09:27:03;;;;;;;1.80;1.00;;;;;;;29.59;29.67;98967.73;104782;1274;63297;-24
2022/07/30 09:29:58;;;;;;;1.40;1.10;;;;;;;29.46;29.74;98961.32;104736;1272;75570;-24
2022/07/30 09:33:03;;;;;;;1.40;1.10;;;;;;;28.96;28.94;98958.68;104224;1277;77154;-25
2022/07/30 09:35:34;;;;;;;1.60;1.10;;;;;;;28.53;29.27;98959.95;104288;1278;75153;-24
2022/07/30 09:38:08;;;;;;;1.30;0.60;;;;;;;28.47;31.20;98957.40;104415;1273;61217;-24
2022/07/30 09:40:54;;;;;;;1.60;1.30;;;;;;;28.97;30.95;98959.08;105082;1271;62840;-24
2022/07/30 09:43:47;;;;;;;4.20;1.00;;;;;;;29.63;30.07;98955.37;104789;1273;75663;-24
2022/07/30 09:46:50;;;;;;;2.20;1.10;;;;;;;30.40;29.41;98948.78;104788;1271;74945;-24
2022/07/30 09:49:26;;;;;;;1.40;1.20;;;;;;;30.77;27.70;98947.14;104638;1273;75436;-25
2022/07/30 09:51:55;;;;;;;3.20;1.30;;;;;;;30.84;27.71;98949.50;104549;1274;61241;-24
2022/07/30 09:54:54;;;;;;;3.10;1.20;;;;;;;31.01;27.19;98943.31;104675;1274;61739;-24
2022/07/30 09:57:26;;;;;;;1.70;1.20;;;;;;;31.32;27.68;98941.83;104607;1273;76609;-24
2022/07/30 10:00:15;;;;;;;3.30;1.00;;;;;;;31.66;27.66;98939.80;104629;1274;75783;-24
2022/07/30 10:02:49;;;;;;;3.80;1.20;;;;;;;32.11;27.35;98938.06;104774;1273;74275;-24
2022/07/30 10:05:53;;;;;;;3.00;1.30;;;;;;;32.21;26.92;98940.14;104494;1276;61178;-24
2022/07/30 10:08:51;;;;;;;3.30;1.30;;;;;;;32.60;25.53;98935.34;104552;1274;63019;-24
2022/07/30 10:11:21;;;;;;;1.80;1.10;;;;;;;32.86;25.56;98927.67;104651;1274;75491;-24
2022/07/30 10:13:55;;;;;;;2.00;1.10;;;;;;;32.67;24.81;98937.00;104763;1271;75931;-24
2022/07/30 10:16:25;;;;;;;2.90;1.40;;;;;;;32.49;25.39;98942.98;104745;1274;75420;-24
2022/07/30 10:18:56;;;;;;;4.50;1.10;;;;;;;32.40;26.15;98940.85;104682;1274;62774;-24
2022/07/30 10:21:42;;;;;;;1.50;1.10;;;;;;;32.68;26.23;98937.59;104621;1274;62432;-24
2022/07/30 10:24:32;;;;;;;2.10;1.20;;;;;;;33.14;26.25;98935.86;104430;1273;75911;-24
2022/07/30 10:27:20;;;;;;;3.00;1.20;;;;;;;32.83;25.95;98927.62;104398;1274;76974;-25
2022/07/30 10:30:01;;;;;;;1.70;1.10;;;;;;;33.17;27.49;98930.56;104726;1274;75169;-25
2022/07/30 10:32:30;;;;;;;4.20;1.20;;;;;;;33.75;25.34;98932.58;104669;1274;61793;-24
2022/07/30 10:34:59;;;;;;;6.00;1.50;;;;;;;33.63;25.15;98934.89;104788;1274;62374;-24
2022/07/30 10:37:30;;;;;;;4.50;1.50;;;;;;;34.14;24.90;98927.68;104654;1274;75229;-25
2022/07/30 10:40:04;;;;;;;4.10;1.30;;;;;;;34.55;24.35;98926.38;104829;1274;76926;-24
2022/07/30 10:42:35;;;;;;;3.40;1.30;;;;;;;34.39;24.08;98925.50;104724;1274;75456;-24
2022/07/30 10:45:38;;;;;;;3.80;1.30;;;;;;;33.76;25.12;98933.07;104684;1274;63158;-24
2022/07/30 10:48:12;;;;;;;2.80;1.10;;;;;;;33.81;25.25;98923.52;104705;1271;61754;-24
2022/07/30 10:50:54;;;;;;;1.80;1.10;;;;;;;33.69;24.70;98925.29;104602;1273;77047;-24
2022/07/30 10:53:35;;;;;;;3.00;1.20;;;;;;;33.65;25.42;98926.89;104769;1272;77118;-25
2022/07/30 10:56:17;;;;;;;1.60;1.10;;;;;;;33.43;26.10;98924.19;104605;1275;71828;-24
2022/07/30 10:59:08;;;;;;;2.20;1.30;;;;;;;33.57;26.02;98922.68;104639;1274;62104;-24
2022/07/30 11:01:48;;;;;;;1.80;1.30;;;;;;;33.32;27.09;98915.91;104698;1272;61996;-24
2022/07/30 11:04:26;;;;;;;5.30;1.30;;;;;;;33.13;26.54;98910.52;104703;1274;75495;-24
2022/07/30 11:07:26;;;;;;;6.10;1.50;;;;;;;33.02;27.00;98907.08;104687;1275;76151;-24
2022/07/30 11:09:59;;;;;;;6.80;1.30;;;;;;;33.14;26.02;98904.37;104915;1274;75275;-24
2022/07/30 11:12:44;;;;;;;3.00;1.30;;;;;;;32.89;25.24;98902.21;104630;1271;62946;-24
2022/07/30 11:15:12;;;;;;;2.00;1.20;;;;;;;32.54;25.70;98897.06;104946;1273;62837;-25
2022/07/30 11:18:02;;;;;;;5.00;1.10;;;;;;;32.33;26.89;98899.36;104884;1274;76553;-25
2022/07/30 11:20:31;;;;;;;3.30;1.30;;;;;;;32.23;25.90;98894.30;104830;1274;76820;-25
2022/07/30 11:23:19;;;;;;;2.60;1.10;;;;;;;32.15;26.34;98884.36;104671;1274;75858;-24
2022/07/30 11:25:47;;;;;;;1.50;1.20;;;;;;;32.19;26.53;98879.45;104620;1274;62935;-25
2022/07/30 11:28:37;;;;;;;1.40;1.10;;;;;;;32.27;26.22;98877.75;104891;1271;63033;-24
2022/07/30 11:31:25;;;;;;;4.30;1.40;;;;;;;32.15;26.08;98874.55;104675;1274;76616;-25
2022/07/30 11:34:18;;;;;;;2.10;1.20;;;;;;;31.75;26.66;98870.50;104640;1274;75896;-25
2022/07/30 11:37:15;;;;;;;2.80;1.30;;;;;;;31.45;26.92;98866.65;104705;1271;75370;-24
2022/07/30 11:39:54;;;;;;;5.60;1.50;;;;;;;31.21;27.43;98865.28;104652;1274;61144;-24
2022/07/30 11:42:32;;;;;;;3.60;1.20;;;;;;;31.12;27.66;98865.45;104622;1274;61035;-24
2022/07/30 11:45:15;;;;;;;4.60;1.80;;;;;;;30.99;28.39;98862.83;104649;1274;76327;-24
2022/07/30 11:47:47;;;;;;;4.80;1.80;;;;;;;30.90;28.55;98859.85;104733;1274;77073;-24
2022/07/30 11:50:28;;;;;;;2.00;1.20;;;;;;;31.11;29.24;98859.27;104779;1274;74265;-26
2022/07/30 11:53:06;;;;;;;2.70;1.30;;;;;;;31.14;29.00;98852.00;104752;1275;62133;-24
2022/07/30 11:55:39;;;;;;;3.00;1.30;;;;;;;31.12;27.87;98851.64;105029;1273;61037;-24